createdAt,value
2023-02-14T00:00:58.403Z,0.95
2023-02-14T00:03:25.115Z,0.93
2023-02-14T00:05:51.905Z,0.86
2023-02-14T00:08:18.379Z,0.83
2023-02-14T00:10:45.210Z,0.79
2023-02-14T00:13:11.594Z,0.78
2023-02-14T00:15:38.207Z,0.79
2023-02-14T00:18:06.169Z,0.87
2023-02-14T00:20:32.575Z,0.81
2023-02-14T00:23:01.215Z,0.80
2023-02-14T00:25:27.614Z,0.72
2023-02-14T00:27:55.938Z,0.62
2023-02-14T00:30:22.657Z,0.61
2023-02-14T00:32:49.876Z,0.52
2023-02-14T00:35:16.340Z,0.54
2023-02-14T00:37:46.827Z,0.58
2023-02-14T00:40:13.726Z,0.59
2023-02-14T00:42:40.391Z,0.62
2023-02-14T00:45:07.080Z,0.61
2023-02-14T00:47:34.116Z,0.57
2023-02-14T00:50:02.746Z,0.51
2023-02-14T00:52:30.509Z,0.43
2023-02-14T00:54:56.839Z,0.38
2023-02-14T00:57:26.688Z,0.39
2023-02-14T00:59:53.113Z,0.41
2023-02-14T01:02:29.071Z,0.42
2023-02-14T01:04:55.512Z,0.44
2023-02-14T01:07:22.656Z,0.42
2023-02-14T01:09:49.104Z,0.42
2023-02-14T01:12:16.035Z,0.37
2023-02-14T01:14:42.412Z,0.28
2023-02-14T01:17:34.068Z,0.27
2023-02-14T01:20:00.607Z,0.20
2023-02-14T01:23:24.046Z,0.12
2023-02-14T01:26:47.359Z,0.14
2023-02-14T01:29:13.739Z,0.22
2023-02-14T01:31:40.671Z,0.21
2023-02-14T01:34:07.301Z,0.29
2023-02-14T01:36:37.574Z,0.33
2023-02-14T01:39:12.329Z,0.39
2023-02-14T01:41:41.279Z,0.51
2023-02-14T01:44:36.629Z,0.58
2023-02-14T01:47:07.798Z,0.81
2023-02-14T01:49:38.785Z,0.91
2023-02-14T01:52:12.967Z,1.04
2023-02-14T01:54:44.592Z,1.17
2023-02-14T01:57:15.406Z,1.49
2023-02-14T01:59:51.107Z,1.54
2023-02-14T02:02:23.713Z,1.48
2023-02-14T02:04:55.797Z,1.47
2023-02-14T02:07:26.826Z,1.47
2023-02-14T02:10:00.749Z,1.59
2023-02-14T02:12:29.784Z,1.59
2023-02-14T02:15:00.321Z,1.55
2023-02-14T02:17:45.305Z,1.39
2023-02-14T02:20:31.933Z,1.42
2023-02-14T02:23:21.779Z,1.45
2023-02-14T02:26:03.618Z,1.38
2023-02-14T02:29:07.913Z,1.29
2023-02-14T02:31:54.864Z,1.13
2023-02-14T02:34:59.370Z,1.11
2023-02-14T02:37:44.786Z,1.03
2023-02-14T02:40:23.611Z,1.03
2023-02-14T02:43:07.391Z,1.08
2023-02-14T02:46:08.485Z,1.06
2023-02-14T02:48:45.287Z,0.91
2023-02-14T02:51:40.881Z,0.85
2023-02-14T02:54:14.485Z,0.86
2023-02-14T02:56:51.564Z,0.97
2023-02-14T02:59:30.322Z,1.21
2023-02-14T03:02:12.793Z,1.42
2023-02-14T03:04:56.247Z,1.34
2023-02-14T03:07:39.699Z,1.22
2023-02-14T03:10:19.154Z,1.20
2023-02-14T03:12:54.964Z,1.33
2023-02-14T03:15:34.193Z,1.28
2023-02-14T03:18:18.936Z,1.19
2023-02-14T03:20:45.444Z,1.09
2023-02-14T03:23:24.295Z,0.96
2023-02-14T03:26:15.328Z,1.17
2023-02-14T03:28:44.937Z,1.29
2023-02-14T03:31:28.152Z,1.05
2023-02-14T03:34:06.951Z,1.05
2023-02-14T03:36:50.896Z,0.97
2023-02-14T03:39:33.301Z,1.00
2023-02-14T03:42:22.662Z,0.89
2023-02-14T03:44:53.015Z,0.88
2023-02-14T03:47:24.215Z,1.11
2023-02-14T03:49:56.472Z,1.16
2023-02-14T03:52:27.412Z,0.93
2023-02-14T03:54:57.234Z,0.86
2023-02-14T03:57:46.097Z,0.98
2023-02-14T04:00:13.825Z,0.99
2023-02-14T04:02:46.612Z,0.93
2023-02-14T04:05:19.486Z,0.70
2023-02-14T04:07:53.273Z,0.87
2023-02-14T04:10:21.227Z,1.01
2023-02-14T04:12:48.478Z,0.95
2023-02-14T04:15:15.916Z,1.05
2023-02-14T04:18:01.023Z,1.37
2023-02-14T04:20:28.419Z,1.03
2023-02-14T04:22:55.292Z,1.09
2023-02-14T04:25:22.778Z,1.12
2023-02-14T04:27:49.196Z,1.06
2023-02-14T04:30:17.963Z,1.05
2023-02-14T04:32:44.719Z,1.08
2023-02-14T04:35:11.376Z,1.14
2023-02-14T04:37:37.982Z,1.10
2023-02-14T04:40:05.076Z,1.21
2023-02-14T04:42:31.961Z,1.35
2023-02-14T04:44:58.810Z,1.40
2023-02-14T04:47:25.658Z,1.55
2023-02-14T04:49:52.429Z,1.73
2023-02-14T04:52:19.227Z,1.76
2023-02-14T04:54:45.667Z,1.90
2023-02-14T04:57:12.076Z,1.98
2023-02-14T04:59:38.651Z,2.08
2023-02-14T05:02:05.129Z,2.23
2023-02-14T05:04:31.757Z,2.34
2023-02-14T05:06:58.149Z,2.42
2023-02-14T05:09:25.800Z,2.51
2023-02-14T05:11:52.221Z,2.50
2023-02-14T05:14:19.482Z,2.45
2023-02-14T05:16:46.242Z,2.43
2023-02-14T05:19:13.337Z,2.33
2023-02-14T05:21:40.138Z,2.39
2023-02-14T05:24:06.810Z,2.42
2023-02-14T05:26:33.683Z,2.29
2023-02-14T05:29:00.401Z,2.30
2023-02-14T05:31:27.077Z,2.34
2023-02-14T05:33:53.550Z,2.42
2023-02-14T05:36:20.205Z,2.38
2023-02-14T05:38:46.621Z,2.29
2023-02-14T05:41:13.705Z,2.32
2023-02-14T05:43:40.113Z,2.29
2023-02-14T05:46:06.777Z,2.30
2023-02-14T05:48:33.956Z,2.28
2023-02-14T05:51:05.636Z,2.29
2023-02-14T05:53:33.412Z,2.29
2023-02-14T05:56:00.175Z,2.32
2023-02-14T05:58:27.115Z,2.34
2023-02-14T06:00:53.725Z,2.36
2023-02-14T06:03:20.257Z,2.36
2023-02-14T06:05:46.766Z,2.32
2023-02-14T06:08:13.230Z,2.27
2023-02-14T06:10:39.651Z,2.23
2023-02-14T06:13:10.583Z,2.20
2023-02-14T06:15:38.545Z,2.21
2023-02-14T06:18:05.499Z,2.18
2023-02-14T06:20:32.025Z,2.14
2023-02-14T06:22:59.539Z,2.06
2023-02-14T06:25:26.178Z,2.08
2023-02-14T06:27:56.893Z,2.09
2023-02-14T06:30:23.910Z,2.09
2023-02-14T06:32:50.541Z,2.08
2023-02-14T06:35:17.623Z,2.11
2023-02-14T06:37:45.177Z,2.10
2023-02-14T06:40:12.581Z,2.13
2023-02-14T06:42:39.069Z,2.11
2023-02-14T06:45:06.733Z,2.16
2023-02-14T06:47:34.958Z,2.14
2023-02-14T06:50:04.505Z,2.14
2023-02-14T06:52:32.545Z,2.17
2023-02-14T06:54:59.084Z,2.16
2023-02-14T06:57:25.606Z,2.20
2023-02-14T06:59:52.093Z,2.22
2023-02-14T07:02:18.678Z,2.18
2023-02-14T07:04:45.395Z,2.18
2023-02-14T07:07:11.992Z,2.18
2023-02-14T07:09:38.711Z,2.20
2023-02-14T07:12:06.096Z,2.22
2023-02-14T07:14:32.563Z,2.20
2023-02-14T07:16:59.109Z,2.16
2023-02-14T07:19:25.641Z,2.22
2023-02-14T07:21:52.071Z,2.23
2023-02-14T07:24:18.939Z,2.23
2023-02-14T07:26:45.591Z,2.28
2023-02-14T07:29:12.170Z,2.30
2023-02-14T07:31:38.650Z,2.31
2023-02-14T07:34:05.294Z,2.32
2023-02-14T07:36:31.735Z,2.34
2023-02-14T07:38:58.421Z,2.34
2023-02-14T07:41:25.088Z,2.36
2023-02-14T07:43:51.747Z,2.37
2023-02-14T07:46:18.776Z,2.41
2023-02-14T07:48:45.298Z,2.41
2023-02-14T07:51:11.990Z,2.47
2023-02-14T07:53:38.367Z,2.48
2023-02-14T07:56:05.174Z,2.49
2023-02-14T07:58:31.670Z,2.49
2023-02-14T08:00:58.732Z,2.53
2023-02-14T08:03:25.237Z,2.56
2023-02-14T08:05:57.680Z,2.60
2023-02-14T08:08:26.526Z,2.61
2023-02-14T08:10:53.248Z,2.60
2023-02-14T08:13:20.427Z,2.70
2023-02-14T08:16:05.200Z,2.75
2023-02-14T08:18:39.766Z,2.80
2023-02-14T08:21:09.285Z,2.93
2023-02-14T08:23:37.383Z,2.95
2023-02-14T08:26:04.381Z,3.02
2023-02-14T08:28:33.544Z,3.06
2023-02-14T08:31:00.908Z,3.14
2023-02-14T08:33:28.305Z,3.17
2023-02-14T08:35:54.888Z,3.19
2023-02-14T08:38:21.439Z,3.23
2023-02-14T08:40:48.372Z,3.32
2023-02-14T08:43:14.820Z,3.38
2023-02-14T08:45:41.859Z,3.42
2023-02-14T08:48:10.856Z,3.51
2023-02-14T08:50:38.266Z,3.51
2023-02-14T08:53:13.035Z,3.52
2023-02-14T08:55:41.514Z,3.61
2023-02-14T08:58:09.280Z,3.65
2023-02-14T09:00:36.378Z,3.75
2023-02-14T09:03:02.843Z,3.76
2023-02-14T09:05:29.869Z,3.81
2023-02-14T09:07:56.612Z,3.83
2023-02-14T09:10:24.998Z,3.91
2023-02-14T09:12:51.931Z,4.05
2023-02-14T09:15:18.833Z,4.05
2023-02-14T09:17:45.531Z,4.06
2023-02-14T09:20:13.210Z,4.15
2023-02-14T09:22:39.965Z,4.21
2023-02-14T09:25:06.681Z,4.26
2023-02-14T09:27:33.671Z,4.30
2023-02-14T09:30:00.314Z,4.39
2023-02-14T09:32:29.018Z,4.37
2023-02-14T09:35:14.299Z,4.49
2023-02-14T09:37:40.680Z,4.56
2023-02-14T09:40:07.857Z,4.62
2023-02-14T09:42:42.794Z,4.71
2023-02-14T09:45:25.699Z,4.76
2023-02-14T09:48:31.673Z,4.81
2023-02-14T09:51:07.087Z,4.88
2023-02-14T09:53:40.585Z,4.94
2023-02-14T09:56:50.586Z,5.02
2023-02-14T09:59:28.256Z,5.10
2023-02-14T10:02:09.425Z,5.21
2023-02-14T10:04:42.356Z,5.25
2023-02-14T10:07:17.969Z,5.44
2023-02-14T10:10:03.776Z,5.40
2023-02-14T10:12:37.039Z,5.42
2023-02-14T10:15:26.189Z,5.48
2023-02-14T10:18:01.092Z,5.51
2023-02-14T10:20:30.565Z,5.58
2023-02-14T10:23:05.170Z,5.64
2023-02-14T10:25:48.803Z,5.74
2023-02-14T10:28:24.751Z,5.80
2023-02-14T10:31:26.803Z,5.83
2023-02-14T10:34:04.395Z,5.95
2023-02-14T10:36:43.123Z,6.08
2023-02-14T10:39:28.347Z,5.97
2023-02-14T10:42:23.651Z,6.00
2023-02-14T10:45:17.753Z,6.01
2023-02-14T10:48:19.521Z,6.10
2023-02-14T10:51:10.558Z,6.18
2023-02-14T10:53:49.319Z,6.16
2023-02-14T10:56:23.449Z,6.31
2023-02-14T10:58:52.428Z,6.43
2023-02-14T11:01:20.183Z,6.41
2023-02-14T11:04:11.574Z,6.42
2023-02-14T11:06:38.241Z,6.50
2023-02-14T11:09:05.184Z,6.51
2023-02-14T11:11:38.340Z,6.58
2023-02-14T11:14:24.775Z,6.55
2023-02-14T11:16:52.794Z,6.63
2023-02-14T11:19:22.752Z,6.65
2023-02-14T11:21:50.940Z,6.61
2023-02-14T11:24:32.727Z,6.73
2023-02-14T11:27:03.053Z,6.78
2023-02-14T11:29:41.528Z,6.90
2023-02-14T11:32:10.780Z,6.98
2023-02-14T11:34:41.071Z,7.06
2023-02-14T11:37:23.489Z,7.14
2023-02-14T11:39:51.560Z,6.98
2023-02-14T11:42:47.728Z,7.12
2023-02-14T11:45:31.983Z,7.09
2023-02-14T11:48:20.001Z,7.07
2023-02-14T11:51:03.265Z,6.90
2023-02-14T11:53:53.366Z,6.96
2023-02-14T11:56:21.655Z,6.89
2023-02-14T11:59:03.378Z,6.99
2023-02-14T12:01:35.918Z,6.88
2023-02-14T12:04:14.052Z,6.89
2023-02-14T12:06:40.830Z,6.99
2023-02-14T12:09:23.625Z,7.13
2023-02-14T12:11:59.594Z,7.31
2023-02-14T12:14:35.348Z,7.31
2023-02-14T12:17:11.411Z,7.25
2023-02-14T12:19:44.821Z,7.35
2023-02-14T12:22:18.850Z,7.28
2023-02-14T12:24:54.634Z,7.21
2023-02-14T12:27:24.675Z,7.17
2023-02-14T12:30:14.066Z,7.19
2023-02-14T12:32:52.641Z,7.34
2023-02-14T12:35:50.022Z,7.54
2023-02-14T12:38:34.800Z,7.52
2023-02-14T12:41:30.594Z,7.48
2023-02-14T12:44:03.421Z,7.63
2023-02-14T12:47:14.657Z,7.66
2023-02-14T12:49:54.834Z,7.57
2023-02-14T12:52:30.591Z,7.41
2023-02-14T12:55:25.194Z,7.12
2023-02-14T12:57:58.924Z,7.20
2023-02-14T13:00:28.153Z,7.30
2023-02-14T13:03:16.045Z,7.40
2023-02-14T13:05:57.749Z,7.38
2023-02-14T13:08:31.735Z,7.65
2023-02-14T13:11:29.931Z,7.83
2023-02-14T13:14:29.668Z,8.05
2023-02-14T13:16:58.886Z,8.21
2023-02-14T13:20:08.963Z,8.22
2023-02-14T13:22:37.123Z,8.07
2023-02-14T13:25:13.117Z,8.25
2023-02-14T13:27:41.257Z,8.16
2023-02-14T13:30:24.976Z,8.26
2023-02-14T13:32:54.782Z,8.27
2023-02-14T13:35:23.823Z,8.12
2023-02-14T13:38:03.562Z,8.17
2023-02-14T13:40:32.069Z,8.14
2023-02-14T13:43:00.646Z,7.90
2023-02-14T13:45:30.583Z,8.05
2023-02-14T13:48:21.132Z,7.94
2023-02-14T13:50:51.057Z,8.09
2023-02-14T13:53:39.503Z,8.03
2023-02-14T13:56:11.953Z,8.07
2023-02-14T13:58:59.890Z,8.13
2023-02-14T14:01:37.801Z,8.29
2023-02-14T14:04:26.623Z,8.27
2023-02-14T14:07:05.816Z,8.33
2023-02-14T14:09:57.217Z,8.29
2023-02-14T14:12:37.555Z,8.34
2023-02-14T14:15:06.845Z,8.48
2023-02-14T14:17:41.330Z,8.39
2023-02-14T14:20:20.114Z,8.33
2023-02-14T14:23:44.809Z,8.23
2023-02-14T14:26:35.198Z,8.22
2023-02-14T14:29:01.742Z,8.22
2023-02-14T14:31:29.633Z,8.06
2023-02-14T14:34:02.258Z,8.19
2023-02-14T14:36:29.128Z,8.00
2023-02-14T14:38:55.540Z,8.23
2023-02-14T14:41:31.397Z,7.90
2023-02-14T14:43:59.716Z,7.69
2023-02-14T14:46:26.300Z,7.62
2023-02-14T14:48:56.078Z,7.64
2023-02-14T14:51:28.509Z,7.54
2023-02-14T14:54:27.542Z,7.41
2023-02-14T14:57:04.389Z,7.41
2023-02-14T14:59:37.226Z,7.45
2023-02-14T15:02:27.469Z,7.39
2023-02-14T15:04:53.935Z,7.42
2023-02-14T15:07:30.459Z,7.45
2023-02-14T15:09:56.928Z,7.33
2023-02-14T15:12:44.036Z,7.32
2023-02-14T15:15:13.483Z,7.16
2023-02-14T15:17:41.872Z,7.14
2023-02-14T15:20:19.045Z,7.13
2023-02-14T15:22:48.330Z,7.19
2023-02-14T15:25:28.006Z,7.07
2023-02-14T15:27:55.410Z,6.98
2023-02-14T15:30:31.680Z,6.92
2023-02-14T15:32:58.820Z,6.82
2023-02-14T15:35:29.027Z,6.84
2023-02-14T15:37:57.815Z,6.61
2023-02-14T15:40:27.279Z,6.48
2023-02-14T15:42:56.607Z,6.41
2023-02-14T15:45:28.818Z,6.31
2023-02-14T15:47:59.195Z,6.30
2023-02-14T15:50:30.334Z,6.16
2023-02-14T15:53:17.221Z,6.06
2023-02-14T15:55:44.575Z,6.05
2023-02-14T15:58:32.794Z,5.95
2023-02-14T16:01:00.101Z,5.98
2023-02-14T16:03:31.128Z,5.77
2023-02-14T16:05:57.513Z,5.54
2023-02-14T16:08:34.579Z,5.43
2023-02-14T16:11:15.760Z,5.28
2023-02-14T16:13:45.151Z,5.13
2023-02-14T16:16:15.523Z,5.07
2023-02-14T16:18:42.694Z,4.96
2023-02-14T16:21:18.036Z,4.85
2023-02-14T16:24:07.550Z,4.75
2023-02-14T16:26:35.934Z,4.63
2023-02-14T16:29:04.017Z,4.51
2023-02-14T16:31:30.984Z,4.37
2023-02-14T16:33:58.131Z,4.29
2023-02-14T16:36:32.773Z,4.23
2023-02-14T16:39:04.877Z,4.20
2023-02-14T16:41:33.803Z,4.06
2023-02-14T16:44:00.526Z,4.05
2023-02-14T16:46:32.507Z,3.97
2023-02-14T16:48:59.719Z,3.91
2023-02-14T16:51:29.726Z,3.86
2023-02-14T16:53:59.253Z,3.62
2023-02-14T16:56:44.359Z,3.45
2023-02-14T16:59:10.871Z,3.37
2023-02-14T17:01:37.589Z,3.34
2023-02-14T17:04:04.720Z,3.24
2023-02-14T17:06:33.925Z,3.18
2023-02-14T17:09:05.748Z,3.13
2023-02-14T17:11:36.725Z,3.04
2023-02-14T17:14:03.354Z,2.97
2023-02-14T17:16:31.481Z,2.88
2023-02-14T17:18:58.527Z,2.83
2023-02-14T17:21:25.149Z,2.80
2023-02-14T17:23:51.729Z,2.76
2023-02-14T17:26:18.712Z,2.71
2023-02-14T17:28:46.452Z,2.59
2023-02-14T17:31:13.599Z,2.51
2023-02-14T17:33:40.454Z,2.41
2023-02-14T17:36:11.862Z,2.36
2023-02-14T17:38:40.455Z,2.35
2023-02-14T17:41:11.925Z,2.34
2023-02-14T17:43:38.517Z,2.24
2023-02-14T17:46:05.496Z,2.25
2023-02-14T17:48:32.391Z,2.31
2023-02-14T17:51:06.494Z,2.27
2023-02-14T17:53:33.993Z,2.17
2023-02-14T17:56:12.260Z,2.06
2023-02-14T17:58:39.052Z,2.00
2023-02-14T18:01:08.145Z,1.91
2023-02-14T18:03:35.543Z,1.85
2023-02-14T18:06:02.860Z,1.90
2023-02-14T18:08:32.021Z,1.79
2023-02-14T18:10:58.689Z,1.82
2023-02-14T18:13:26.143Z,1.85
2023-02-14T18:15:53.175Z,1.79
2023-02-14T18:18:20.360Z,1.77
2023-02-14T18:20:58.490Z,1.71
2023-02-14T18:23:25.492Z,1.69
2023-02-14T18:25:55.577Z,1.68
2023-02-14T18:28:23.865Z,1.67
2023-02-14T18:30:50.842Z,1.69
2023-02-14T18:33:18.124Z,1.71
2023-02-14T18:35:45.217Z,1.76
2023-02-14T18:38:12.477Z,1.71
2023-02-14T18:40:40.058Z,1.68
2023-02-14T18:43:06.955Z,1.64
2023-02-14T18:45:38.109Z,1.68
2023-02-14T18:48:06.003Z,1.71
2023-02-14T18:50:33.510Z,1.68
2023-02-14T18:53:00.210Z,1.72
2023-02-14T18:55:27.247Z,1.66
2023-02-14T18:57:54.041Z,1.70
2023-02-14T19:00:21.739Z,1.61
2023-02-14T19:02:48.543Z,1.64
2023-02-14T19:05:15.216Z,1.60
2023-02-14T19:07:41.829Z,1.61
2023-02-14T19:10:10.633Z,1.58
2023-02-14T19:12:37.065Z,1.56
2023-02-14T19:15:03.962Z,1.53
2023-02-14T19:17:30.482Z,1.49
2023-02-14T19:19:57.290Z,1.61
2023-02-14T19:22:23.885Z,1.60
2023-02-14T19:24:54.057Z,1.49
2023-02-14T19:27:21.496Z,1.48
2023-02-14T19:29:48.426Z,1.49
2023-02-14T19:32:14.918Z,1.42
2023-02-14T19:34:41.808Z,1.38
2023-02-14T19:37:08.327Z,1.35
2023-02-14T19:39:35.162Z,1.35
2023-02-14T19:42:01.935Z,1.35
2023-02-14T19:44:30.475Z,1.38
2023-02-14T19:46:59.873Z,1.41
2023-02-14T19:49:28.807Z,1.30
2023-02-14T19:51:56.368Z,1.26
2023-02-14T19:54:25.825Z,1.31
2023-02-14T19:56:53.419Z,1.30
2023-02-14T19:59:21.689Z,1.28
2023-02-14T20:01:53.760Z,1.41
2023-02-14T20:04:26.632Z,1.38
2023-02-14T20:06:53.801Z,1.36
2023-02-14T20:09:21.829Z,1.42
2023-02-14T20:11:51.430Z,1.42
2023-02-14T20:14:30.514Z,1.39
2023-02-14T20:16:59.032Z,1.40
2023-02-14T20:19:29.224Z,1.37
2023-02-14T20:21:56.139Z,1.38
2023-02-14T20:24:31.080Z,1.41
2023-02-14T20:26:58.120Z,1.31
2023-02-14T20:29:25.345Z,1.24
2023-02-14T20:31:54.474Z,1.33
2023-02-14T20:34:21.594Z,1.18
2023-02-14T20:36:56.351Z,1.26
2023-02-14T20:39:35.800Z,1.20
2023-02-14T20:42:03.834Z,1.24
2023-02-14T20:44:30.753Z,1.27
2023-02-14T20:46:57.992Z,1.19
2023-02-14T20:49:26.361Z,1.17
2023-02-14T20:51:53.545Z,1.17
2023-02-14T20:54:23.118Z,1.18
2023-02-14T20:56:51.019Z,1.11
2023-02-14T20:59:19.338Z,1.13
2023-02-14T21:01:45.888Z,1.09
2023-02-14T21:04:14.448Z,1.11
2023-02-14T21:06:41.041Z,1.08
2023-02-14T21:09:08.334Z,1.06
2023-02-14T21:11:34.821Z,1.01
2023-02-14T21:14:01.959Z,0.96
2023-02-14T21:16:30.120Z,1.00
2023-02-14T21:19:01.325Z,1.02
2023-02-14T21:21:33.663Z,1.00
2023-02-14T21:24:01.946Z,1.05
2023-02-14T21:26:28.929Z,1.05
2023-02-14T21:28:55.500Z,1.06
2023-02-14T21:31:23.341Z,0.98
2023-02-14T21:33:57.546Z,0.97
2023-02-14T21:36:26.098Z,1.02
2023-02-14T21:38:55.348Z,0.93
2023-02-14T21:41:23.973Z,0.86
2023-02-14T21:43:52.919Z,0.81
2023-02-14T21:46:27.052Z,0.87
2023-02-14T21:49:14.293Z,0.85
2023-02-14T21:51:40.991Z,0.77
2023-02-14T21:54:08.514Z,0.82
2023-02-14T21:56:36.831Z,0.89
2023-02-14T21:59:03.769Z,0.79
2023-02-14T22:01:35.667Z,0.84
2023-02-14T22:04:04.592Z,0.82
2023-02-14T22:06:31.918Z,0.83
2023-02-14T22:09:00.547Z,0.74
2023-02-14T22:11:28.961Z,0.70
2023-02-14T22:14:00.237Z,0.71
2023-02-14T22:16:27.961Z,0.72
2023-02-14T22:18:54.945Z,0.67
2023-02-14T22:21:24.113Z,0.72
2023-02-14T22:23:51.320Z,0.59
2023-02-14T22:26:26.673Z,0.55
2023-02-14T22:28:59.123Z,0.57
2023-02-14T22:31:29.230Z,0.52
2023-02-14T22:33:55.832Z,0.59
2023-02-14T22:36:22.870Z,0.62
2023-02-14T22:38:49.340Z,0.63
2023-02-14T22:41:21.475Z,0.58
2023-02-14T22:43:47.955Z,0.63
2023-02-14T22:46:22.777Z,0.56
2023-02-14T22:48:50.141Z,0.56
2023-02-14T22:51:27.223Z,0.64
2023-02-14T22:53:56.390Z,0.54
2023-02-14T22:56:26.916Z,0.60
2023-02-14T22:58:59.092Z,0.50
2023-02-14T23:01:25.980Z,0.53
2023-02-14T23:03:54.427Z,0.54
2023-02-14T23:06:21.019Z,0.53
2023-02-14T23:08:48.032Z,0.46
2023-02-14T23:11:17.739Z,0.45
2023-02-14T23:14:03.521Z,0.51
2023-02-14T23:16:49.978Z,0.55
2023-02-14T23:19:38.975Z,0.52
2023-02-14T23:22:08.554Z,0.50
2023-02-14T23:24:35.292Z,0.48
2023-02-14T23:27:02.830Z,0.56
2023-02-14T23:29:29.972Z,0.46
2023-02-14T23:31:57.382Z,0.48
2023-02-14T23:34:28.503Z,0.44
2023-02-14T23:36:55.302Z,0.48
2023-02-14T23:39:21.997Z,0.51
2023-02-14T23:41:48.504Z,0.47
2023-02-14T23:44:20.318Z,0.50
2023-02-14T23:46:51.538Z,0.56
2023-02-14T23:49:18.577Z,0.52
2023-02-14T23:51:46.955Z,0.47
2023-02-14T23:54:14.043Z,0.54
2023-02-14T23:56:41.398Z,0.51
2023-02-14T23:59:08.787Z,0.46
